Time;durP1;ratioP1;P1;durP2;ratioP2;P2;SDS_P1;SDS_P2;PMS_P1;PMS_P2;Temp;Humidity;BMP_temperature;BMP_pressure;BME280_temperature;BME280_humidity;BME280_pressure;Samples;Min_cycle;Max_cycle;Signal;HPM_P1;HPM_P2
2022/10/24 00:01:10;;;;;;;64.93;34.23;;;;;;;10.12;100.00;99963.97;4229122;28;23485;-64
2022/10/24 00:03:37;;;;;;;60.63;34.53;;;;;;;10.06;100.00;99965.41;4234195;28;20629;-63
2022/10/24 00:06:05;;;;;;;61.87;32.70;;;;;;;10.19;100.00;99967.69;4200967;28;21723;-61
2022/10/24 00:08:33;;;;;;;64.23;34.50;;;;;;;10.25;100.00;99968.88;4229479;28;21101;-61
2022/10/24 00:11:00;;;;;;;57.47;33.17;;;;;;;10.29;100.00;99967.63;4226005;28;20425;-62
2022/10/24 00:13:26;;;;;;;66.70;35.60;;;;;;;10.32;100.00;99970.81;4218563;28;20315;-62
2022/10/24 00:15:53;;;;;;;56.77;33.33;;;;;;;10.28;100.00;99965.94;4223545;28;20236;-63
2022/10/24 00:18:20;;;;;;;62.03;33.43;;;;;;;10.26;100.00;99962.59;4217557;28;20236;-62
2022/10/24 00:20:46;;;;;;;58.83;33.77;;;;;;;10.17;100.00;99963.50;4220171;28;21757;-60
2022/10/24 00:23:13;;;;;;;58.17;32.70;;;;;;;10.15;100.00;99966.31;4215292;28;20235;-63
2022/10/24 00:25:39;;;;;;;58.90;32.23;;;;;;;10.18;100.00;99970.47;4237595;28;20250;-59
2022/10/24 00:28:06;;;;;;;60.40;32.67;;;;;;;10.19;100.00;99977.47;4233339;28;26211;-60
2022/10/24 00:30:32;;;;;;;56.03;32.00;;;;;;;10.14;100.00;99981.44;4221127;28;20797;-61
2022/10/24 00:32:59;;;;;;;62.10;33.23;;;;;;;10.08;100.00;99986.53;4223040;28;20250;-60
2022/10/24 00:35:25;;;;;;;64.80;34.70;;;;;;;10.03;100.00;99976.34;4224199;28;20387;-63
2022/10/24 00:37:52;;;;;;;57.23;32.73;;;;;;;10.10;100.00;99985.38;4220169;28;20588;-64
2022/10/24 00:40:19;;;;;;;59.43;34.00;;;;;;;10.03;100.00;99976.34;4226097;28;23123;-64
2022/10/24 00:42:46;;;;;;;58.03;32.93;;;;;;;10.04;100.00;99975.34;4217633;28;20255;-60
2022/10/24 00:45:36;;;;;;;59.80;32.83;;;;;;;10.03;100.00;99971.03;4214031;28;21106;-60
2022/10/24 00:48:11;;;;;;;59.20;32.33;;;;;;;9.98;100.00;99973.31;4226601;28;21883;-62
2022/10/24 00:50:37;;;;;;;58.30;32.23;;;;;;;9.96;100.00;99964.66;4216885;28;20241;-63
2022/10/24 00:53:04;;;;;;;61.10;32.77;;;;;;;9.99;100.00;99960.84;4216718;28;20234;-63
2022/10/24 00:55:30;;;;;;;53.87;33.03;;;;;;;10.01;100.00;99954.38;4216159;28;20238;-62
2022/10/24 00:58:00;;;;;;;58.83;33.80;;;;;;;9.98;100.00;99946.72;4223245;28;20356;-63
2022/10/24 01:00:31;;;;;;;56.93;31.13;;;;;;;9.96;100.00;99943.38;4204005;28;20303;-62
2022/10/24 01:02:58;;;;;;;60.77;32.57;;;;;;;9.93;100.00;99935.72;4215437;28;20249;-62
2022/10/24 01:05:27;;;;;;;54.97;31.53;;;;;;;9.91;100.00;99937.69;4227565;28;20240;-61
2022/10/24 01:07:59;;;;;;;59.13;32.10;;;;;;;9.90;100.00;99936.88;4208448;28;22217;-61
2022/10/24 01:11:24;;;;;;;53.77;31.93;;;;;;;9.95;100.00;99941.72;4219440;28;20235;-63
2022/10/24 01:14:26;;;;;;;59.20;31.80;;;;;;;9.94;100.00;99932.06;4187692;28;20506;-62
2022/10/24 01:17:08;;;;;;;62.73;31.43;;;;;;;10.01;100.00;99926.97;4226090;28;20242;-61
2022/10/24 01:19:56;;;;;;;56.10;31.03;;;;;;;10.04;100.00;99929.31;4204761;28;20236;-61
2022/10/24 01:22:32;;;;;;;58.10;33.27;;;;;;;10.00;100.00;99923.50;4194594;28;20239;-61
2022/10/24 01:25:13;;;;;;;54.13;31.40;;;;;;;9.96;100.00;99913.31;4217275;28;20338;-62
2022/10/24 01:27:50;;;;;;;62.77;31.60;;;;;;;10.00;100.00;99915.53;4216013;28;20236;-61
2022/10/24 01:30:17;;;;;;;51.63;31.10;;;;;;;9.99;100.00;99916.50;4200224;28;20236;-62
2022/10/24 01:32:54;;;;;;;49.67;30.17;;;;;;;9.97;100.00;99913.16;4236615;28;20245;-60
2022/10/24 01:35:26;;;;;;;54.63;31.20;;;;;;;10.01;100.00;99914.53;4205630;28;20271;-64
2022/10/24 01:38:11;;;;;;;54.60;31.40;;;;;;;10.00;100.00;99920.84;4216796;28;20240;-62
2022/10/24 01:40:58;;;;;;;51.40;30.13;;;;;;;10.23;100.00;99925.63;4237783;28;25748;-62
2022/10/24 01:43:31;;;;;;;54.03;30.33;;;;;;;10.24;100.00;99916.69;4230906;28;21051;-62
2022/10/24 01:46:04;;;;;;;49.63;29.40;;;;;;;10.13;100.00;99915.94;4210005;28;20303;-62
2022/10/24 01:48:37;;;;;;;54.10;30.00;;;;;;;10.08;100.00;99912.91;4224581;28;22280;-62
2022/10/24 01:51:05;;;;;;;50.37;29.17;;;;;;;10.14;100.00;99914.13;4220994;28;21444;-61
2022/10/24 01:53:32;;;;;;;44.47;27.90;;;;;;;10.20;100.00;99904.69;4221482;28;20704;-62
2022/10/24 01:55:59;;;;;;;50.60;28.43;;;;;;;10.13;100.00;99901.81;4214417;28;20418;-62
2022/10/24 01:58:26;;;;;;;50.93;29.10;;;;;;;10.07;100.00;99900.63;4215148;28;20236;-61
2022/10/24 02:00:54;;;;;;;54.53;29.73;;;;;;;10.05;100.00;99897.28;4219274;28;23580;-60
2022/10/24 02:03:31;;;;;;;48.13;27.87;;;;;;;9.95;100.00;99877.94;4225469;28;20304;-61
2022/10/24 02:06:19;;;;;;;53.93;29.03;;;;;;;9.82;100.00;99870.34;4217163;28;20673;-64
2022/10/24 02:08:50;;;;;;;54.23;29.10;;;;;;;9.87;100.00;99868.06;4222493;28;20382;-59
2022/10/24 02:11:17;;;;;;;49.97;29.23;;;;;;;9.82;100.00;99856.25;4221461;28;20715;-60
2022/10/24 02:13:54;;;;;;;50.80;28.37;;;;;;;9.88;100.00;99848.50;4218307;28;20306;-61
2022/10/24 02:16:21;;;;;;;44.57;28.60;;;;;;;9.83;100.00;99844.59;4220170;28;20232;-62
2022/10/24 02:18:50;;;;;;;52.70;29.50;;;;;;;9.86;100.00;99844.31;4227437;28;20834;-63
2022/10/24 02:21:41;;;;;;;49.37;27.97;;;;;;;9.92;100.00;99841.03;4206525;28;20232;-64
2022/10/24 02:24:27;;;;;;;51.83;29.97;;;;;;;9.99;100.00;99849.22;4233533;28;20306;-61
2022/10/24 02:27:15;;;;;;;53.60;28.63;;;;;;;10.06;100.00;99853.75;4237095;28;20311;-62
2022/10/24 02:29:46;;;;;;;49.97;28.70;;;;;;;10.04;100.00;99852.22;4208807;28;22594;-63
2022/10/24 02:32:18;;;;;;;50.57;28.67;;;;;;;10.04;100.00;99860.22;4238454;28;20754;-62
2022/10/24 02:34:45;;;;;;;46.47;28.03;;;;;;;10.04;100.00;99853.06;4227164;28;20823;-62
2022/10/24 02:37:13;;;;;;;46.50;27.57;;;;;;;9.94;100.00;99855.00;4220145;28;20363;-63
2022/10/24 02:39:40;;;;;;;43.60;26.50;;;;;;;9.94;100.00;99862.97;4222625;28;20608;-61
2022/10/24 02:42:07;;;;;;;52.27;28.00;;;;;;;9.93;100.00;99856.81;4222673;28;22030;-62
2022/10/24 02:44:34;;;;;;;47.07;26.27;;;;;;;9.88;100.00;99863.56;4220653;28;20257;-63
2022/10/24 02:47:02;;;;;;;47.73;27.43;;;;;;;9.78;100.00;99858.34;4209041;28;20235;-61
2022/10/24 02:49:28;;;;;;;47.97;26.83;;;;;;;9.82;100.00;99858.91;4220998;28;20239;-62
2022/10/24 02:51:56;;;;;;;47.90;26.83;;;;;;;9.76;100.00;99855.00;4218214;28;20239;-61
2022/10/24 02:54:22;;;;;;;48.20;27.83;;;;;;;9.72;100.00;99851.03;4216617;28;20361;-63
2022/10/24 02:56:52;;;;;;;50.30;27.13;;;;;;;9.68;100.00;99853.13;4218945;28;20239;-62
2022/10/24 02:59:18;;;;;;;48.77;28.70;;;;;;;9.64;100.00;99849.09;4218118;28;20238;-64
2022/10/24 03:01:45;;;;;;;49.97;27.17;;;;;;;9.66;100.00;99841.00;4227302;28;20227;-62
2022/10/24 03:04:11;;;;;;;48.13;27.90;;;;;;;9.55;100.00;99835.91;4212672;28;20232;-65
2022/10/24 03:06:38;;;;;;;51.70;28.83;;;;;;;9.61;100.00;99836.13;4191804;28;22490;-63
2022/10/24 03:09:05;;;;;;;46.97;27.80;;;;;;;9.57;100.00;99837.44;4186300;28;21137;-64
2022/10/24 03:11:32;;;;;;;49.87;27.87;;;;;;;9.63;100.00;99834.16;4187654;28;20242;-62
2022/10/24 03:13:58;;;;;;;49.30;27.70;;;;;;;9.57;100.00;99834.78;4195190;28;22677;-61
2022/10/24 03:16:26;;;;;;;44.50;27.60;;;;;;;9.63;100.00;99841.31;4189741;28;20237;-60
2022/10/24 03:18:54;;;;;;;46.20;28.83;;;;;;;9.63;100.00;99831.50;4202726;28;26269;-62
2022/10/24 03:21:20;;;;;;;54.97;30.00;;;;;;;9.62;100.00;99826.34;4196346;28;20510;-60
2022/10/24 03:23:47;;;;;;;54.33;29.23;;;;;;;9.54;100.00;99824.47;4192975;28;23184;-62
2022/10/24 03:26:14;;;;;;;53.93;29.63;;;;;;;9.53;100.00;99828.13;4187686;28;26052;-61
2022/10/24 03:28:41;;;;;;;48.50;28.93;;;;;;;9.53;100.00;99820.16;4196450;28;20678;-62
2022/10/24 03:31:07;;;;;;;48.27;28.47;;;;;;;9.54;100.00;99828.94;4187079;28;20302;-61
2022/10/24 03:33:34;;;;;;;47.47;27.87;;;;;;;9.57;100.00;99823.31;4202750;28;20240;-64
2022/10/24 03:36:00;;;;;;;46.77;27.37;;;;;;;9.48;100.00;99819.75;4186449;28;21625;-61
2022/10/24 03:38:27;;;;;;;47.97;29.07;;;;;;;9.39;100.00;99816.22;4191057;28;20238;-62
2022/10/24 03:40:53;;;;;;;48.00;27.20;;;;;;;9.43;100.00;99808.75;4190229;28;20251;-62
2022/10/24 03:43:20;;;;;;;46.10;27.90;;;;;;;9.35;100.00;99814.00;4195331;28;20438;-61
2022/10/24 03:45:46;;;;;;;51.80;27.10;;;;;;;9.32;100.00;99809.84;4189122;28;20469;-64
2022/10/24 03:48:13;;;;;;;50.57;27.23;;;;;;;9.33;100.00;99806.19;4191721;28;20423;-61
2022/10/24 03:50:39;;;;;;;48.00;27.03;;;;;;;9.30;100.00;99802.03;4190455;28;20236;-64
2022/10/24 03:53:06;;;;;;;43.93;27.13;;;;;;;9.25;100.00;99803.47;4186424;28;21365;-63
2022/10/24 03:55:32;;;;;;;41.77;26.37;;;;;;;9.22;100.00;99803.75;4195842;28;20323;-61
2022/10/24 03:57:59;;;;;;;46.63;26.47;;;;;;;9.21;100.00;99797.63;4189769;28;21616;-60
2022/10/24 04:00:27;;;;;;;48.77;27.73;;;;;;;9.23;100.00;99802.78;4186291;28;20310;-62
2022/10/24 04:02:55;;;;;;;45.87;26.90;;;;;;;9.13;100.00;99794.91;4184795;28;20282;-61
2022/10/24 04:05:21;;;;;;;48.60;28.10;;;;;;;9.21;100.00;99797.63;4165561;28;20238;-60
2022/10/24 04:07:48;;;;;;;47.27;27.53;;;;;;;9.21;100.00;99797.63;4196170;28;20551;-60
2022/10/24 04:10:14;;;;;;;42.40;26.30;;;;;;;9.20;100.00;99793.31;4190613;28;20227;-60
2022/10/24 04:12:41;;;;;;;46.77;25.77;;;;;;;9.28;100.00;99798.69;4192596;28;25163;-59
2022/10/24 04:15:07;;;;;;;45.10;26.27;;;;;;;9.25;100.00;99793.69;4188031;28;20251;-62
2022/10/24 04:17:34;;;;;;;48.47;27.77;;;;;;;9.28;100.00;99796.03;4192504;28;20307;-60
2022/10/24 04:20:00;;;;;;;45.87;26.13;;;;;;;9.34;100.00;99791.09;4186294;28;20561;-62
2022/10/24 04:22:27;;;;;;;47.23;28.10;;;;;;;9.24;100.00;99775.25;4189044;28;20233;-62
2022/10/24 04:24:53;;;;;;;43.93;25.83;;;;;;;9.34;100.00;99777.81;4191223;28;20300;-60
2022/10/24 04:27:20;;;;;;;41.87;26.10;;;;;;;9.34;100.00;99775.16;4186244;28;20237;-63
2022/10/24 04:29:46;;;;;;;41.17;25.30;;;;;;;9.37;100.00;99769.56;4189923;28;23635;-62
2022/10/24 04:32:13;;;;;;;43.17;26.17;;;;;;;9.41;100.00;99760.28;4186124;28;20237;-64
2022/10/24 04:34:39;;;;;;;43.03;25.63;;;;;;;9.39;100.00;99756.94;4185874;28;20340;-67
2022/10/24 04:37:06;;;;;;;44.70;25.40;;;;;;;9.45;100.00;99748.38;4188899;28;20252;-62
2022/10/24 04:39:32;;;;;;;49.83;27.97;;;;;;;9.47;100.00;99741.09;4191154;28;20279;-61
2022/10/24 04:41:59;;;;;;;46.37;27.33;;;;;;;9.54;100.00;99744.78;4185682;28;21121;-60
2022/10/24 04:44:25;;;;;;;42.90;24.97;;;;;;;9.57;100.00;99738.31;4186622;28;20243;-63
2022/10/24 04:46:51;;;;;;;40.23;24.87;;;;;;;9.62;100.00;99730.72;4191144;28;20233;-62
2022/10/24 04:49:18;;;;;;;41.33;25.40;;;;;;;9.56;100.00;99723.38;4186241;28;25438;-62
2022/10/24 04:51:45;;;;;;;42.80;24.47;;;;;;;9.58;100.00;99719.59;4184020;28;20297;-64
2022/10/24 04:54:11;;;;;;;41.73;24.93;;;;;;;9.70;100.00;99718.31;4187854;28;22182;-61
2022/10/24 04:56:38;;;;;;;41.03;24.87;;;;;;;9.69;100.00;99718.47;4172610;28;20239;-62
2022/10/24 04:59:04;;;;;;;45.37;25.77;;;;;;;9.69;100.00;99721.97;4189648;28;20248;-63
2022/10/24 05:01:31;;;;;;;46.67;26.80;;;;;;;9.72;100.00;99716.34;4198380;28;20593;-62
2022/10/24 05:03:57;;;;;;;43.77;25.50;;;;;;;9.80;100.00;99720.88;4172520;28;20246;-64
2022/10/24 05:06:24;;;;;;;44.23;25.83;;;;;;;9.79;100.00;99723.69;4231264;28;20814;-61
2022/10/24 05:08:51;;;;;;;48.03;25.87;;;;;;;9.71;100.00;99719.97;4211855;28;21198;-61
2022/10/24 05:11:17;;;;;;;41.80;25.17;;;;;;;9.75;100.00;99707.22;4215720;28;21394;-61
2022/10/24 05:13:44;;;;;;;52.30;28.00;;;;;;;9.77;100.00;99723.03;4204735;28;22395;-62
2022/10/24 05:16:10;;;;;;;171.57;53.17;;;;;;;9.77;100.00;99704.41;4219975;28;20315;-62
2022/10/24 05:18:37;;;;;;;61.27;28.53;;;;;;;9.81;100.00;99703.09;4221529;28;20447;-60
2022/10/24 05:21:03;;;;;;;53.90;28.90;;;;;;;9.82;100.00;99699.47;4216661;28;20270;-63
2022/10/24 05:23:30;;;;;;;46.83;27.73;;;;;;;9.84;100.00;99692.16;4210307;28;20608;-62
2022/10/24 05:25:57;;;;;;;43.33;25.87;;;;;;;9.90;100.00;99692.38;4216926;28;20317;-64
2022/10/24 05:28:24;;;;;;;45.97;26.67;;;;;;;9.95;100.00;99697.22;4222400;28;20291;-63
2022/10/24 05:30:50;;;;;;;44.93;25.57;;;;;;;9.96;100.00;99703.34;4219702;28;20467;-65
2022/10/24 05:33:17;;;;;;;46.40;26.10;;;;;;;9.96;100.00;99700.69;4223919;28;21550;-63
2022/10/24 05:35:43;;;;;;;41.77;25.33;;;;;;;10.01;100.00;99715.16;4221907;28;23165;-67
2022/10/24 05:38:10;;;;;;;37.37;23.67;;;;;;;10.14;100.00;99728.84;4215963;28;20241;-64
2022/10/24 05:40:36;;;;;;;38.77;23.93;;;;;;;10.19;100.00;99728.38;4222672;28;20314;-64
2022/10/24 05:43:03;;;;;;;36.13;23.47;;;;;;;10.29;100.00;99728.28;4207267;28;20299;-66
2022/10/24 05:45:29;;;;;;;43.30;23.70;;;;;;;10.40;100.00;99735.97;4222665;28;20237;-65
2022/10/24 05:47:56;;;;;;;39.63;23.67;;;;;;;10.42;100.00;99728.66;4214878;28;20239;-64
2022/10/24 05:50:23;;;;;;;36.97;23.00;;;;;;;10.44;100.00;99716.03;4215703;28;20528;-67
2022/10/24 05:52:49;;;;;;;38.53;22.50;;;;;;;10.47;100.00;99710.38;4219316;28;20239;-68
2022/10/24 05:55:16;;;;;;;37.47;22.60;;;;;;;10.47;100.00;99717.53;4210158;28;20235;-70
2022/10/24 05:57:43;;;;;;;38.77;22.37;;;;;;;10.46;100.00;99719.34;4221336;28;21141;-68
2022/10/24 06:00:12;;;;;;;36.97;22.10;;;;;;;10.46;100.00;99718.50;4238185;28;20395;-63
2022/10/24 06:02:39;;;;;;;40.30;22.23;;;;;;;10.44;100.00;99718.69;4250175;28;20282;-65
2022/10/24 06:05:07;;;;;;;37.77;22.97;;;;;;;10.41;100.00;99729.63;4219290;28;22389;-65
2022/10/24 06:07:34;;;;;;;43.00;23.07;;;;;;;10.42;100.00;99739.31;4231390;28;21607;-68
2022/10/24 06:10:02;;;;;;;38.10;22.30;;;;;;;10.41;100.00;99729.63;4221383;28;20239;-65
2022/10/24 06:12:28;;;;;;;38.33;23.10;;;;;;;10.38;100.00;99740.59;4214006;28;20532;-65
2022/10/24 06:14:56;;;;;;;34.63;21.23;;;;;;;10.29;100.00;99736.25;4223868;28;20235;-70
2022/10/24 06:17:22;;;;;;;38.67;22.47;;;;;;;10.21;100.00;99737.03;4215481;28;20236;-65
2022/10/24 06:19:49;;;;;;;38.43;23.63;;;;;;;10.13;100.00;99740.47;4202755;28;20666;-66
2022/10/24 06:22:17;;;;;;;41.80;23.33;;;;;;;10.13;100.00;99729.81;4220504;28;20235;-63
2022/10/24 06:24:43;;;;;;;40.70;22.53;;;;;;;10.08;100.00;99723.34;4214457;28;20349;-65
2022/10/24 06:27:10;;;;;;;46.57;24.03;;;;;;;10.15;100.00;99727.03;4227727;28;21484;-66
2022/10/24 06:29:36;;;;;;;39.17;22.97;;;;;;;10.17;100.00;99724.22;4232939;28;20235;-63
2022/10/24 06:32:03;;;;;;;42.40;22.27;;;;;;;10.09;100.00;99715.22;4215880;28;20407;-69
2022/10/24 06:34:31;;;;;;;36.63;23.33;;;;;;;10.11;100.00;99707.06;4217792;28;21561;-67
2022/10/24 06:36:58;;;;;;;45.03;22.83;;;;;;;10.09;100.00;99701.06;4227778;28;22821;-70
2022/10/24 06:39:24;;;;;;;43.87;23.17;;;;;;;10.10;100.00;99703.56;4221951;28;20459;-68
2022/10/24 06:41:51;;;;;;;43.10;24.43;;;;;;;10.03;100.00;99697.22;4224606;28;20247;-71
2022/10/24 06:44:17;;;;;;;41.43;24.37;;;;;;;10.11;100.00;99710.56;4201492;28;21050;-68
2022/10/24 06:46:44;;;;;;;44.90;23.03;;;;;;;10.12;100.00;99733.50;4220007;28;20227;-69
2022/10/24 06:49:12;;;;;;;45.60;23.90;;;;;;;10.16;100.00;99739.34;4205880;28;20428;-67
2022/10/24 06:51:39;;;;;;;37.03;23.60;;;;;;;10.18;100.00;99747.13;4240323;28;20690;-66
2022/10/24 06:54:06;;;;;;;42.47;23.13;;;;;;;10.18;100.00;99753.28;4239303;28;20407;-68
2022/10/24 06:56:33;;;;;;;38.37;22.50;;;;;;;10.12;100.00;99749.44;4238447;28;20413;-69
2022/10/24 06:58:59;;;;;;;40.13;22.83;;;;;;;10.11;100.00;99750.44;4222392;28;28856;-67
2022/10/24 07:01:26;;;;;;;39.93;22.37;;;;;;;10.20;100.00;99761.94;4237769;28;20236;-67
2022/10/24 07:03:53;;;;;;;40.33;23.13;;;;;;;10.16;100.00;99771.25;4230616;28;20452;-66
2022/10/24 07:06:25;;;;;;;38.43;21.70;;;;;;;10.22;100.00;99764.44;4218044;28;21114;-64
2022/10/24 07:08:55;;;;;;;36.57;22.20;;;;;;;10.19;100.00;99770.09;4224744;28;20477;-65
2022/10/24 07:11:22;;;;;;;39.17;22.03;;;;;;;10.24;100.00;99773.94;4213624;28;21610;-63
2022/10/24 07:13:48;;;;;;;38.73;21.60;;;;;;;10.21;100.00;99786.69;4223265;28;21980;-66
2022/10/24 07:16:15;;;;;;;37.23;22.83;;;;;;;10.14;100.00;99779.38;4223170;28;20236;-64
2022/10/24 07:18:42;;;;;;;37.27;21.10;;;;;;;10.21;100.00;99794.66;4223660;28;20227;-66
2022/10/24 07:21:14;;;;;;;38.30;22.70;;;;;;;10.17;100.00;99799.47;4215198;28;21918;-66
2022/10/24 07:23:41;;;;;;;38.17;22.47;;;;;;;10.15;100.00;99798.81;4227335;28;20617;-67
2022/10/24 07:26:10;;;;;;;40.93;23.40;;;;;;;10.15;100.00;99796.97;4225781;28;20228;-64
2022/10/24 07:28:38;;;;;;;38.90;23.27;;;;;;;10.15;100.00;99796.97;4233486;28;23497;-64
2022/10/24 07:31:05;;;;;;;38.93;21.47;;;;;;;10.18;100.00;99795.00;4218286;28;20234;-66
2022/10/24 07:33:32;;;;;;;39.27;23.23;;;;;;;10.19;100.00;99775.41;4230013;28;20239;-67
2022/10/24 07:35:58;;;;;;;44.53;24.43;;;;;;;10.21;100.00;99766.28;4236657;28;20240;-65
2022/10/24 07:38:25;;;;;;;47.40;24.03;;;;;;;10.27;100.00;99751.50;4236949;28;20290;-70
2022/10/24 07:40:52;;;;;;;39.27;23.30;;;;;;;10.32;100.00;99751.88;4218191;28;20299;-65
2022/10/24 07:43:18;;;;;;;40.83;22.97;;;;;;;10.20;100.00;99745.97;4233705;28;20238;-67
2022/10/24 07:45:45;;;;;;;44.70;22.50;;;;;;;10.24;100.00;99746.50;4222723;28;20370;-68
2022/10/24 07:48:17;;;;;;;43.43;23.40;;;;;;;10.26;100.00;99753.34;4229259;28;21038;-66
2022/10/24 07:50:45;;;;;;;36.47;21.70;;;;;;;10.38;100.00;99759.22;4205406;28;20237;-67
2022/10/24 07:53:13;;;;;;;41.00;22.27;;;;;;;10.50;100.00;99757.94;4259006;28;22139;-67
2022/10/24 07:55:41;;;;;;;37.77;22.67;;;;;;;10.62;100.00;99760.31;4234217;28;20239;-67
2022/10/24 07:58:09;;;;;;;37.23;21.20;;;;;;;10.81;100.00;99757.34;4282687;28;20239;-67
2022/10/24 08:00:36;;;;;;;35.33;20.27;;;;;;;10.82;100.00;99750.22;4268429;28;21200;-68
2022/10/24 08:03:10;;;;;;;38.37;20.03;;;;;;;10.91;100.00;99752.72;4247558;28;22052;-66
2022/10/24 08:05:38;;;;;;;38.00;21.03;;;;;;;10.87;100.00;99754.03;4231316;28;20234;-65
2022/10/24 08:08:05;;;;;;;34.90;19.67;;;;;;;10.95;100.00;99742.56;4218311;28;20468;-66
2022/10/24 08:10:52;;;;;;;35.50;20.10;;;;;;;10.98;100.00;99731.63;4225061;28;20232;-64
2022/10/24 08:13:19;;;;;;;34.20;18.73;;;;;;;11.03;100.00;99737.28;4208990;28;21017;-67
2022/10/24 08:15:45;;;;;;;33.60;20.03;;;;;;;11.08;100.00;99737.59;4232213;28;20240;-66
2022/10/24 08:18:12;;;;;;;36.83;20.17;;;;;;;11.15;100.00;99737.78;4227612;28;20797;-68
2022/10/24 08:20:39;;;;;;;35.40;19.53;;;;;;;11.25;100.00;99735.75;4232433;28;20240;-65
2022/10/24 08:23:06;;;;;;;32.10;19.23;;;;;;;11.23;100.00;99729.78;4247706;28;20649;-66
2022/10/24 08:25:33;;;;;;;32.67;19.00;;;;;;;11.19;100.00;99736.41;4239261;28;23881;-66
2022/10/24 08:27:59;;;;;;;31.80;19.27;;;;;;;11.24;100.00;99726.13;4210859;28;20254;-65
2022/10/24 08:30:31;;;;;;;34.00;19.43;;;;;;;11.30;100.00;99728.09;4231441;28;20448;-65
2022/10/24 08:32:58;;;;;;;35.07;19.57;;;;;;;11.23;100.00;99723.63;4245066;28;20822;-66
2022/10/24 08:35:25;;;;;;;30.47;18.60;;;;;;;11.16;100.00;99728.78;4247163;28;20236;-69
2022/10/24 08:37:51;;;;;;;33.33;19.07;;;;;;;11.35;100.00;99725.75;4268298;28;20233;-71
2022/10/24 08:40:19;;;;;;;34.67;19.33;;;;;;;11.44;100.00;99733.75;4263122;28;20258;-70
2022/10/24 08:42:46;;;;;;;35.97;19.23;;;;;;;11.47;100.00;99730.75;4223126;28;20537;-62
2022/10/24 08:45:46;;;;;;;33.47;19.63;;;;;;;11.71;100.00;99745.91;4247449;28;20311;-66
2022/10/24 08:48:15;;;;;;;37.10;18.30;;;;;;;11.67;100.00;99761.38;4263702;28;21697;-65
2022/10/24 08:50:44;;;;;;;30.13;18.77;;;;;;;11.84;100.00;99749.69;4249942;28;20299;-64
2022/10/24 08:53:28;;;;;;;29.83;17.73;;;;;;;12.02;100.00;99759.34;4259462;28;20234;-65
2022/10/24 08:55:56;;;;;;;40.37;17.83;;;;;;;12.02;100.00;99748.69;4245756;28;21888;-66
2022/10/24 08:58:39;;;;;;;30.90;18.63;;;;;;;12.15;100.00;99743.66;4253886;28;20365;-67
2022/10/24 09:01:31;;;;;;;35.50;17.93;;;;;;;12.56;100.00;99756.81;4261979;28;20597;-66
2022/10/24 09:04:03;;;;;;;26.87;15.67;;;;;;;12.89;100.00;99745.94;4241971;28;20261;-67
2022/10/24 09:06:31;;;;;;;27.70;16.63;;;;;;;13.16;100.00;99751.75;4235077;28;21106;-69
2022/10/24 09:09:04;;;;;;;28.73;17.00;;;;;;;13.17;100.00;99748.09;4236509;28;20541;-68
2022/10/24 09:11:48;;;;;;;29.83;15.70;;;;;;;13.23;100.00;99747.38;4239687;28;20346;-65
2022/10/24 09:14:27;;;;;;;25.87;15.87;;;;;;;13.18;100.00;99749.72;4237612;28;20238;-67
2022/10/24 09:16:58;;;;;;;24.37;15.47;;;;;;;13.10;100.00;99740.78;4237982;28;20235;-67
2022/10/24 09:19:27;;;;;;;26.30;15.57;;;;;;;13.29;100.00;99747.50;4216427;28;20875;-66
2022/10/24 09:21:55;;;;;;;28.97;15.83;;;;;;;13.44;100.00;99738.72;4227330;28;22811;-67
2022/10/24 09:24:34;;;;;;;29.83;16.63;;;;;;;13.69;99.62;99739.28;4231224;28;20302;-65
2022/10/24 09:27:03;;;;;;;28.57;15.73;;;;;;;13.84;96.72;99737.47;4247293;28;21114;-66
2022/10/24 09:29:32;;;;;;;27.23;14.80;;;;;;;14.04;95.53;99731.56;4238400;28;20231;-66
2022/10/24 09:32:01;;;;;;;28.87;14.77;;;;;;;14.13;94.93;99738.50;4218794;28;20292;-66
2022/10/24 09:34:28;;;;;;;21.80;13.70;;;;;;;14.17;94.29;99742.47;4225893;28;21762;-66
2022/10/24 09:36:54;;;;;;;30.90;15.97;;;;;;;14.00;95.41;99743.66;4233707;28;20233;-67
2022/10/24 09:39:30;;;;;;;24.43;14.67;;;;;;;13.73;96.82;99738.75;4230231;28;20290;-66
2022/10/24 09:41:58;;;;;;;27.13;14.90;;;;;;;13.50;98.42;99733.44;4231417;28;20484;-67
2022/10/24 09:44:34;;;;;;;28.93;15.17;;;;;;;13.52;98.84;99742.13;4247041;28;20236;-66
2022/10/24 09:47:01;;;;;;;25.03;15.37;;;;;;;13.70;98.16;99738.31;4213191;28;23953;-68
2022/10/24 09:49:35;;;;;;;24.87;15.00;;;;;;;13.78;98.38;99740.06;4228400;28;20228;-66
2022/10/24 09:52:17;;;;;;;26.53;14.97;;;;;;;13.85;97.74;99736.47;4242558;28;20234;-66
2022/10/24 09:54:45;;;;;;;33.77;15.77;;;;;;;13.77;97.73;99731.22;4249100;28;20251;-64
2022/10/24 09:57:13;;;;;;;29.90;14.70;;;;;;;13.81;98.39;99745.84;4234896;28;21250;-66
2022/10/24 09:59:58;;;;;;;23.57;15.03;;;;;;;13.78;98.82;99735.53;4237875;28;20264;-71
2022/10/24 10:02:33;;;;;;;27.07;14.30;;;;;;;13.98;97.56;99743.84;4250027;28;20236;-69
2022/10/24 10:05:02;;;;;;;27.53;16.53;;;;;;;14.01;98.19;99734.63;4234805;28;20709;-67
2022/10/24 10:07:34;;;;;;;23.03;14.47;;;;;;;14.17;97.36;99726.41;4232719;28;20328;-69
2022/10/24 10:10:20;;;;;;;25.10;15.17;;;;;;;14.09;97.56;99729.16;4256966;28;20240;-66
2022/10/24 10:13:08;;;;;;;25.97;14.43;;;;;;;14.20;96.39;99728.72;4253905;28;20231;-66
2022/10/24 10:15:44;;;;;;;25.93;15.30;;;;;;;14.21;96.60;99727.72;4226326;28;23644;-69
2022/10/24 10:18:40;;;;;;;30.70;14.47;;;;;;;14.17;97.60;99733.63;4214752;28;20813;-69
2022/10/24 10:21:17;;;;;;;22.37;14.80;;;;;;;14.14;97.31;99724.09;4239190;28;20251;-70
2022/10/24 10:23:53;;;;;;;29.23;14.87;;;;;;;14.13;97.50;99725.13;4255497;28;20439;-69
2022/10/24 10:26:27;;;;;;;26.53;15.67;;;;;;;14.19;98.05;99720.84;4225740;28;20343;-69
2022/10/24 10:29:24;;;;;;;33.47;15.13;;;;;;;14.27;97.93;99724.28;4285935;28;20308;-68
2022/10/24 10:32:13;;;;;;;27.97;16.80;;;;;;;14.27;98.07;99723.44;4256364;28;20700;-67
2022/10/24 10:34:50;;;;;;;26.60;14.83;;;;;;;14.56;97.37;99728.78;4261676;28;20261;-73
2022/10/24 10:37:27;;;;;;;30.97;14.63;;;;;;;14.76;95.96;99728.16;4253610;28;20242;-67
2022/10/24 10:40:14;;;;;;;23.93;13.87;;;;;;;14.85;95.05;99721.69;4260227;28;20234;-68
2022/10/24 10:43:06;;;;;;;25.90;15.00;;;;;;;14.91;94.61;99712.88;4256705;28;20572;-70
2022/10/24 10:45:44;;;;;;;25.53;14.00;;;;;;;15.06;93.98;99718.19;4222185;28;20240;-67
2022/10/24 10:48:54;;;;;;;24.20;14.27;;;;;;;15.13;93.96;99724.41;4233471;28;20506;-71
2022/10/24 10:51:26;;;;;;;23.80;14.23;;;;;;;15.15;94.12;99733.09;4192539;28;22018;-69
2022/10/24 10:54:09;;;;;;;27.57;13.57;;;;;;;15.10;93.37;99729.31;4221918;28;20633;-69
2022/10/24 10:56:48;;;;;;;30.27;12.83;;;;;;;15.07;94.87;99733.22;4252951;28;20228;-66
2022/10/24 10:59:25;;;;;;;24.87;12.87;;;;;;;14.94;95.74;99728.56;4231634;28;22016;-70
2022/10/24 11:02:03;;;;;;;28.63;12.90;;;;;;;14.94;96.21;99727.75;4240464;28;20578;-67
2022/10/24 11:04:57;;;;;;;27.70;12.83;;;;;;;14.94;96.57;99720.53;4226210;28;20242;-78
2022/10/24 11:07:37;;;;;;;24.37;12.13;;;;;;;15.09;95.52;99728.50;4218738;28;20302;-68
2022/10/24 11:10:07;;;;;;;24.23;12.10;;;;;;;15.06;95.72;99725.38;4185870;28;20247;-71
2022/10/24 11:12:42;;;;;;;21.67;12.10;;;;;;;15.15;95.40;99734.97;4219968;28;20258;-69
2022/10/24 11:15:16;;;;;;;24.17;12.23;;;;;;;15.23;95.36;99729.44;4241563;28;20234;-73
2022/10/24 11:17:58;;;;;;;21.83;11.63;;;;;;;15.18;95.46;99730.03;4228348;28;25516;-69
2022/10/24 11:20:32;;;;;;;25.83;11.67;;;;;;;15.11;96.49;99726.47;4219811;28;20237;-68
2022/10/24 11:23:15;;;;;;;21.77;10.97;;;;;;;15.26;95.26;99720.19;4220004;28;21729;-69
2022/10/24 11:25:45;;;;;;;23.90;11.57;;;;;;;15.29;95.04;99723.34;4212334;28;20240;-71
2022/10/24 11:28:33;;;;;;;24.27;12.37;;;;;;;15.36;95.07;99718.03;4238893;28;22514;-72
2022/10/24 11:31:22;;;;;;;19.77;10.70;;;;;;;15.54;94.35;99726.41;4220933;28;20231;-70